»·PEaware :: SWA2782 KABQ-KPHX

SWA2782 :: KABQ-KPHX

FLIGHT INFORMATION

Flight Status: Arrived
Operator:
Southwest Airlines
More flights by this operator :: More flights under this callsign
Pilot: Patricio R. (14780)
Aircraft: BOEING 737-800
(B738)
More flights by this aircraft type
Origin: KABQ Albuquerque Intl Sunport
United States
Destination: KPHX Phoenix Sky Harbor Intl
United States
More flights between these airports :: More routes between these airports
Route: RDRNR3 ZUN EAGUL6
File this flight plan on PilotEdge
Remarks: PBN / A1B1C1D1S1S2 DOF / 180927 REG / N806SB OPR / SWA PER / C RMK / TCAS SIMBRIEF
Altitude:
(Current/Filed)
36,000ft
Speed:
(Current/Filed)
432kts
Departed: 27-Sep-18 10:38 AM
Arrived: 27-Sep-18 11:41 AM
Distance/Time
Traveled:
284nm/1:03
Distance/Time
To Go:
Arrived

Flight Plot

Page will automatically refresh every two minutes.


Map Options




Map Legend


Flown Route
Filed Route
Departure Airport
Arrival Airport
Navaid (VOR, NDB)
Fix

Horizontal Profiles

Position Reports

Time Latitude Longitude Heading Altitude Ground
Speed
27-Sep-18 10:19 35.047884 -106.614314 213 5323ft 0kts
27-Sep-18 10:20 35.047884 -106.614314 213 5323ft 0kts
27-Sep-18 10:21 35.047884 -106.614314 213 5323ft 0kts
27-Sep-18 10:22 35.047884 -106.614314 213 5323ft 0kts
27-Sep-18 10:23 35.047884 -106.614314 213 5323ft 0kts
27-Sep-18 10:24 35.047884 -106.614314 213 5323ft 0kts
27-Sep-18 10:25 35.047884 -106.614314 213 5323ft 0kts
27-Sep-18 10:26 35.047884 -106.614314 213 5323ft 0kts
27-Sep-18 10:27 35.047884 -106.614314 213 5323ft 0kts
27-Sep-18 10:28 35.047884 -106.614314 213 5323ft 0kts
27-Sep-18 10:29 35.047884 -106.614314 213 5323ft 0kts
27-Sep-18 10:30 35.047884 -106.614314 213 5323ft 0kts
27-Sep-18 10:31 35.048059 -106.614174 213 5323ft 0kts
27-Sep-18 10:32 35.048362 -106.614384 87 5323ft 1kts
27-Sep-18 10:33 35.048362 -106.614415 89 5323ft 0kts
27-Sep-18 10:34 35.048346 -106.613743 92 5323ft 8kts
27-Sep-18 10:35 35.046902 -106.613117 181 5323ft 12kts
27-Sep-18 10:36 35.045555 -106.614808 269 5321ft 8kts
27-Sep-18 10:37 35.045580 -106.619361 270 5319ft 15kts
27-Sep-18 10:38 35.045240 -106.621343 190 5315ft 0kts
27-Sep-18 10:39 35.044334 -106.620023 90 5317ft 35kts
27-Sep-18 10:40 35.044231 -106.572333 89 6527ft 183kts
27-Sep-18 10:41 35.075276 -106.559603 285 8752ft 169kts
27-Sep-18 10:42 35.081172 -106.619779 276 10581ft 204kts
27-Sep-18 10:43 35.087360 -106.701320 276 12213ft 280kts
27-Sep-18 10:44 35.096938 -106.799781 281 15416ft 302kts
27-Sep-18 10:45 35.109872 -106.902304 266 18641ft 317kts
27-Sep-18 10:46 35.089989 -107.008919 258 21591ft 330kts
27-Sep-18 10:47 35.067711 -107.119090 258 24184ft 342kts
27-Sep-18 10:48 35.044538 -107.233719 259 26496ft 354kts
27-Sep-18 10:49 35.034639 -107.352065 271 28924ft 351kts
27-Sep-18 10:50 35.031149 -107.469978 271 31200ft 346kts
27-Sep-18 10:51 35.027455 -107.586462 271 33200ft 342kts
27-Sep-18 10:52 35.023671 -107.701214 271 34966ft 338kts
27-Sep-18 10:53 35.019763 -107.815137 271 36343ft 342kts
27-Sep-18 10:54 35.015544 -107.937873 270 36354ft 382kts
27-Sep-18 10:55 35.010729 -108.071294 270 36354ft 419kts
27-Sep-18 10:56 35.005399 -108.212764 270 36339ft 428kts
27-Sep-18 10:57 34.999796 -108.357551 270 36340ft 428kts
27-Sep-18 10:58 34.994051 -108.501971 270 36339ft 428kts
27-Sep-18 10:59 34.988110 -108.646924 270 36339ft 429kts
27-Sep-18 11:00 34.982034 -108.790400 269 36339ft 430kts
27-Sep-18 11:01 34.975727 -108.935695 269 36330ft 430kts
27-Sep-18 11:02 34.969256 -109.081003 269 36317ft 432kts
27-Sep-18 11:03 34.940742 -109.224286 249 36311ft 445kts
27-Sep-18 11:04 34.890438 -109.361805 248 36298ft 447kts
27-Sep-18 11:05 34.839750 -109.500062 248 36299ft 448kts
27-Sep-18 11:06 34.788964 -109.638076 248 36299ft 448kts
27-Sep-18 11:07 34.739053 -109.773066 248 36312ft 448kts
27-Sep-18 11:08 34.687973 -109.910674 248 36328ft 445kts
27-Sep-18 11:09 34.640279 -110.038454 248 36339ft 400kts
27-Sep-18 11:10 34.593654 -110.163304 248 36326ft 409kts
27-Sep-18 11:11 34.546567 -110.288780 248 33826ft 412kts
27-Sep-18 11:12 34.499586 -110.413438 248 31570ft 399kts
27-Sep-18 11:13 34.454194 -110.533404 248 29491ft 385kts
27-Sep-18 11:14 34.411322 -110.646174 248 28388ft 349kts
27-Sep-18 11:15 34.369586 -110.755811 247 27415ft 353kts
27-Sep-18 11:16 34.312820 -110.849797 229 26462ft 352kts
27-Sep-18 11:17 34.243135 -110.939510 229 24770ft 381kts
27-Sep-18 11:18 34.170133 -111.033660 228 22821ft 394kts
27-Sep-18 11:19 34.096656 -111.128144 228 20853ft 373kts
27-Sep-18 11:20 34.028302 -111.215834 228 19088ft 348kts
27-Sep-18 11:21 33.963906 -111.298265 228 17434ft 328kts
27-Sep-18 11:22 33.902955 -111.376108 228 15928ft 312kts
27-Sep-18 11:23 33.852386 -111.457050 239 14506ft 299kts
27-Sep-18 11:24 33.809028 -111.540540 238 13069ft 291kts
27-Sep-18 11:25 33.767489 -111.619321 238 12579ft 272kts
27-Sep-18 11:26 33.726168 -111.696855 237 12216ft 281kts
27-Sep-18 11:27 33.685185 -111.773871 237 11549ft 259kts
27-Sep-18 11:28 33.646701 -111.846396 237 10861ft 264kts
27-Sep-18 11:29 33.606672 -111.921755 236 9327ft 272kts
27-Sep-18 11:30 33.567465 -111.995142 238 8137ft 250kts
27-Sep-18 11:31 33.531168 -112.063637 243 7219ft 241kts
27-Sep-18 11:32 33.514770 -112.137739 261 7284ft 233kts
27-Sep-18 11:33 33.510037 -112.215916 268 6707ft 235kts
27-Sep-18 11:34 33.506992 -112.293122 268 5491ft 232kts
27-Sep-18 11:35 33.492818 -112.365161 208 4191ft 233kts
27-Sep-18 11:36 33.429920 -112.359784 170 4034ft 232kts
27-Sep-18 11:37 33.383146 -112.323024 80 4086ft 221kts
27-Sep-18 11:38 33.399410 -112.252766 74 3059ft 214kts
27-Sep-18 11:39 33.414288 -112.189157 74 3026ft 194kts
27-Sep-18 11:40 33.427543 -112.130243 79 2731ft 165kts
27-Sep-18 11:41 33.428806 -112.078250 90 2021ft 148kts
27-Sep-18 11:42 33.428815 -112.029827 89 1189ft 143kts
27-Sep-18 11:43 33.429654 -112.007422 52 1125ft 13kts
27-Sep-18 11:44 33.431097 -112.006238 1 1130ft 9kts
27-Sep-18 11:45 33.432834 -112.003766 89 1128ft 9kts
27-Sep-18 11:46 33.432832 -111.999498 89 1125ft 20kts
27-Sep-18 11:47 33.432855 -111.997241 65 1122ft 1kts
27-Sep-18 11:48 33.433437 -111.996834 25 1123ft 0kts

Navigation Log

Ident Type
Flight plan parsing failed, navigation log unavailable